Terminal Aerodrome Forecast
Issued by NWS

Home | Current Version | Previous Version | Text Only | Print | Product List | Glossary On
Versions: 1 2 3 4 5 6 7 8 9 10 11 12 13 14 15 16
000
FTUS44 KLZK 171700
TAFPBF
TAF
KPBF 171720Z 1718/1818 18005KT P6SM BKN025 BKN250
     FM180000 VRB04KT P6SM VCTS BKN035CB OVC250
     FM180900 00000KT 4SM BR SCT015 OVC250
     FM181300 15005KT P6SM VCSH SCT035 BKN250=

USA.gov is the U.S. government's official web portal to all federal, state and local government web resources and services.